Time;durP1;ratioP1;P1;durP2;ratioP2;P2;SDS_P1;SDS_P2;PMS_P1;PMS_P2;Temp;Humidity;BMP_temperature;BMP_pressure;BME280_temperature;BME280_humidity;BME280_pressure;Samples;Min_cycle;Max_cycle;Signal;HPM_P1;HPM_P2
2022/05/15 00:02:08;;;;;;;14.57;5.63;;;7.80;99.90;;;;;;4340834;28;657806;-66
2022/05/15 00:04:56;;;;;;;11.03;5.10;;;7.80;99.90;;;;;;4373295;28;657781;-66
2022/05/15 00:07:43;;;;;;;11.77;5.40;;;7.80;99.90;;;;;;4401907;28;658085;-66
2022/05/15 00:10:30;;;;;;;9.40;5.17;;;7.80;99.90;;;;;;4381191;28;657766;-66
2022/05/15 00:13:18;;;;;;;12.10;5.60;;;7.80;99.90;;;;;;4399445;28;657315;-66
2022/05/15 00:16:05;;;;;;;17.57;5.83;;;7.80;99.90;;;;;;4376479;28;658435;-67
2022/05/15 00:18:54;;;;;;;14.43;5.57;;;7.80;99.90;;;;;;4394355;28;657921;-66
2022/05/15 00:21:41;;;;;;;15.70;5.20;;;7.70;99.90;;;;;;4378351;28;657545;-66
2022/05/15 00:24:29;;;;;;;10.43;5.47;;;7.80;99.90;;;;;;4389540;28;657826;-66
2022/05/15 00:27:16;;;;;;;11.87;4.97;;;7.90;99.90;;;;;;4368168;28;658426;-66
2022/05/15 00:30:03;;;;;;;15.73;5.90;;;8.00;99.90;;;;;;4391310;28;659514;-67
2022/05/15 00:32:50;;;;;;;12.53;5.60;;;8.00;99.90;;;;;;4372129;28;657714;-66
2022/05/15 00:35:39;;;;;;;17.90;5.70;;;8.00;99.90;;;;;;4380332;28;658769;-67
2022/05/15 00:38:26;;;;;;;13.40;5.27;;;8.00;99.90;;;;;;4373285;28;657785;-67
2022/05/15 00:41:14;;;;;;;15.43;5.13;;;8.00;99.90;;;;;;4392041;28;658299;-67
2022/05/15 00:44:01;;;;;;;13.47;5.10;;;8.00;99.90;;;;;;4382888;28;657738;-66
2022/05/15 00:46:48;;;;;;;13.30;4.90;;;7.90;99.90;;;;;;4407125;28;657910;-67
2022/05/15 00:49:36;;;;;;;20.63;5.43;;;7.90;99.90;;;;;;4374054;28;657652;-66
2022/05/15 00:52:27;;;;;;;16.03;5.97;;;7.90;99.90;;;;;;4399324;28;658091;-66
2022/05/15 00:55:15;;;;;;;11.53;5.60;;;7.90;99.90;;;;;;4367311;28;657565;-67
2022/05/15 00:58:05;;;;;;;17.13;5.90;;;8.00;99.90;;;;;;4372934;28;660490;-67
2022/05/15 01:00:53;;;;;;;16.70;6.37;;;8.10;99.90;;;;;;4373788;28;658365;-67
2022/05/15 01:03:42;;;;;;;18.10;5.93;;;8.10;99.90;;;;;;4385674;28;658096;-66
2022/05/15 01:06:29;;;;;;;17.20;6.13;;;8.10;99.90;;;;;;4393308;28;657545;-66
2022/05/15 01:09:19;;;;;;;15.60;5.60;;;8.10;99.90;;;;;;4378114;28;657805;-67
2022/05/15 01:12:07;;;;;;;15.10;6.23;;;8.00;99.90;;;;;;4374779;28;657679;-67
2022/05/15 01:14:54;;;;;;;25.10;5.77;;;8.00;99.90;;;;;;4391900;28;658505;-67
2022/05/15 01:17:42;;;;;;;14.80;6.10;;;8.20;99.90;;;;;;4380437;28;658467;-67
2022/05/15 01:20:29;;;;;;;17.77;6.37;;;8.30;99.90;;;;;;4397831;28;658363;-66
2022/05/15 01:23:18;;;;;;;15.40;5.70;;;8.40;99.90;;;;;;4373475;28;657896;-67
2022/05/15 01:26:05;;;;;;;14.93;5.47;;;8.40;99.90;;;;;;4390400;28;657840;-67
2022/05/15 01:28:52;;;;;;;14.93;5.93;;;8.50;99.90;;;;;;4399949;28;658486;-67
2022/05/15 01:31:40;;;;;;;11.73;5.70;;;8.50;99.90;;;;;;4389088;28;657628;-66
2022/05/15 01:34:28;;;;;;;16.33;5.97;;;8.50;99.90;;;;;;4396565;28;659541;-67
2022/05/15 01:37:15;;;;;;;14.27;5.60;;;8.60;99.90;;;;;;4369022;28;657259;-66
2022/05/15 01:40:05;;;;;;;13.03;5.57;;;8.60;99.90;;;;;;4395959;28;660012;-67
2022/05/15 01:42:52;;;;;;;13.70;5.70;;;8.70;99.90;;;;;;4369289;28;659222;-67
2022/05/15 01:45:39;;;;;;;12.97;5.70;;;8.70;99.90;;;;;;4403620;28;657366;-67
2022/05/15 01:48:27;;;;;;;17.00;6.00;;;8.80;99.90;;;;;;4379513;28;657644;-67
2022/05/15 01:51:14;;;;;;;11.43;5.60;;;8.80;99.90;;;;;;4378320;28;657557;-67
2022/05/15 01:54:01;;;;;;;19.00;6.03;;;8.90;99.90;;;;;;4382372;28;658105;-66
2022/05/15 01:56:50;;;;;;;11.80;5.73;;;9.00;99.90;;;;;;4397480;28;658858;-67
2022/05/15 01:59:38;;;;;;;15.47;6.57;;;9.00;99.90;;;;;;4389593;28;658345;-67
2022/05/15 02:02:25;;;;;;;12.37;4.97;;;9.00;99.90;;;;;;4383135;28;657762;-67
2022/05/15 02:05:12;;;;;;;20.03;6.07;;;9.10;99.90;;;;;;4400250;28;659212;-66
2022/05/15 02:08:00;;;;;;;15.57;5.83;;;9.20;99.90;;;;;;4405659;28;657885;-67
2022/05/15 02:10:47;;;;;;;13.50;6.03;;;9.20;99.90;;;;;;4410753;28;658372;-67
2022/05/15 02:13:37;;;;;;;14.33;6.07;;;9.30;99.90;;;;;;4407032;28;657638;-67
2022/05/15 02:16:24;;;;;;;13.60;5.37;;;9.30;99.90;;;;;;4397558;28;657782;-67
2022/05/15 02:19:11;;;;;;;13.70;5.43;;;9.30;99.90;;;;;;4379350;28;657456;-67
2022/05/15 02:21:58;;;;;;;17.10;7.00;;;9.40;99.90;;;;;;4400645;28;658670;-67
2022/05/15 02:24:45;;;;;;;13.50;5.73;;;9.40;99.90;;;;;;4376746;28;657471;-67
2022/05/15 02:27:33;;;;;;;16.90;6.23;;;9.40;99.90;;;;;;4406565;28;659672;-67
2022/05/15 02:30:23;;;;;;;15.47;5.93;;;9.50;99.90;;;;;;4398973;28;657720;-67
2022/05/15 02:33:11;;;;;;;14.77;6.40;;;9.50;99.90;;;;;;4384872;28;657786;-67
2022/05/15 02:35:58;;;;;;;15.03;5.90;;;9.50;99.90;;;;;;4402841;28;657626;-67
2022/05/15 02:38:46;;;;;;;15.33;5.67;;;9.50;99.90;;;;;;4386490;28;658183;-67
2022/05/15 02:41:34;;;;;;;17.00;5.50;;;9.50;99.90;;;;;;4389945;28;657975;-67
2022/05/15 02:44:21;;;;;;;17.57;6.27;;;9.50;99.90;;;;;;4371372;28;658108;-67
2022/05/15 02:47:10;;;;;;;13.53;6.00;;;9.50;99.90;;;;;;4404159;28;657336;-67
2022/05/15 02:53:02;;;;;;;14.33;6.20;;;9.50;99.90;;;;;;4344333;28;659185;-67
2022/05/15 02:55:49;;;;;;;18.50;5.90;;;9.50;99.90;;;;;;4390366;28;657881;-66
2022/05/15 02:58:36;;;;;;;10.60;5.13;;;9.40;99.90;;;;;;4384342;28;658228;-67
2022/05/15 03:01:23;;;;;;;12.03;5.80;;;9.40;99.90;;;;;;4389610;28;658382;-67
2022/05/15 03:04:12;;;;;;;14.43;5.30;;;9.50;99.90;;;;;;4376901;28;658353;-66
2022/05/15 03:06:59;;;;;;;9.18;5.07;;;9.50;99.90;;;;;;4401380;28;657189;-67
2022/05/15 03:09:47;;;;;;;16.70;5.43;;;9.50;99.90;;;;;;4378834;28;656742;-66
2022/05/15 03:12:34;;;;;;;11.07;4.90;;;9.40;99.90;;;;;;4400680;28;657272;-67
2022/05/15 03:15:22;;;;;;;18.00;5.47;;;9.30;99.90;;;;;;4378254;28;657680;-67
2022/05/15 03:18:09;;;;;;;17.27;5.80;;;9.50;99.90;;;;;;4397607;28;657789;-67
2022/05/15 03:20:58;;;;;;;13.27;5.33;;;9.60;99.90;;;;;;4376324;28;658530;-66
2022/05/15 03:23:45;;;;;;;17.03;5.67;;;9.70;99.90;;;;;;4383716;28;658445;-66
2022/05/15 03:26:34;;;;;;;15.70;5.93;;;9.70;99.90;;;;;;4391674;28;657720;-67
2022/05/15 03:29:22;;;;;;;10.43;5.67;;;9.80;99.90;;;;;;4381418;28;658959;-67
2022/05/15 03:32:09;;;;;;;11.73;5.40;;;9.80;99.90;;;;;;4391556;28;657786;-67
2022/05/15 03:34:56;;;;;;;14.17;5.80;;;9.70;99.90;;;;;;4371495;28;658090;-68
2022/05/15 03:37:45;;;;;;;14.77;6.47;;;9.80;99.90;;;;;;4390902;28;658074;-67
2022/05/15 03:40:32;;;;;;;13.20;5.83;;;9.90;99.90;;;;;;4370869;28;658448;-67
2022/05/15 03:43:19;;;;;;;22.52;6.50;;;10.00;99.90;;;;;;4393236;28;657808;-67
2022/05/15 03:46:07;;;;;;;17.27;6.40;;;10.10;99.90;;;;;;4375539;28;658631;-67
2022/05/15 03:48:54;;;;;;;12.70;5.83;;;10.20;99.90;;;;;;4408011;28;659097;-68
2022/05/15 03:51:41;;;;;;;15.83;6.73;;;10.20;99.90;;;;;;4380255;28;659736;-67
2022/05/15 03:54:30;;;;;;;22.10;6.67;;;10.30;99.90;;;;;;4399827;28;659398;-67
2022/05/15 03:57:17;;;;;;;14.03;6.73;;;10.40;99.90;;;;;;4372784;28;659601;-67
2022/05/15 04:00:07;;;;;;;20.20;6.13;;;10.40;99.90;;;;;;4391188;28;659514;-67
2022/05/15 04:02:54;;;;;;;15.27;6.20;;;10.40;99.90;;;;;;4407088;28;659209;-68
2022/05/15 04:05:41;;;;;;;14.23;6.57;;;10.60;99.90;;;;;;4378043;28;658833;-67
2022/05/15 04:08:30;;;;;;;13.93;6.57;;;10.70;99.90;;;;;;4401958;28;658644;-67
2022/05/15 04:11:18;;;;;;;14.67;6.10;;;10.70;99.90;;;;;;4385341;28;658483;-67
2022/05/15 04:14:06;;;;;;;15.33;5.90;;;10.80;99.90;;;;;;4376952;28;659702;-67
2022/05/15 04:16:53;;;;;;;11.97;6.00;;;10.90;99.90;;;;;;4389983;28;660090;-67
2022/05/15 04:19:40;;;;;;;13.23;6.20;;;10.90;99.90;;;;;;4360927;28;658655;-67
2022/05/15 04:22:27;;;;;;;19.00;6.47;;;11.10;99.90;;;;;;4398725;28;660106;-67
2022/05/15 04:25:14;;;;;;;15.90;6.77;;;11.30;99.90;;;;;;4387453;28;658485;-67
2022/05/15 04:28:03;;;;;;;13.50;6.37;;;11.40;99.90;;;;;;4377285;28;660115;-67
2022/05/15 04:30:51;;;;;;;14.20;6.57;;;11.30;99.90;;;;;;4382455;28;658749;-67
2022/05/15 04:33:38;;;;;;;18.30;6.90;;;11.40;99.90;;;;;;4399394;28;658796;-67
2022/05/15 04:36:25;;;;;;;17.33;7.97;;;11.60;99.90;;;;;;4369355;28;658661;-67
2022/05/15 04:39:12;;;;;;;21.73;8.50;;;11.80;99.90;;;;;;4396901;28;659758;-68
2022/05/15 04:42:00;;;;;;;22.73;9.93;;;11.80;99.90;;;;;;4410284;28;659305;-67
2022/05/15 04:44:48;;;;;;;18.87;9.40;;;12.10;99.90;;;;;;4364702;28;660309;-68
2022/05/15 04:47:35;;;;;;;20.50;9.00;;;12.20;99.90;;;;;;4366540;28;659256;-68
2022/05/15 04:50:23;;;;;;;21.37;8.80;;;12.30;99.90;;;;;;4386978;28;660661;-67
2022/05/15 04:53:10;;;;;;;30.83;10.97;;;12.40;99.90;;;;;;4377194;28;658616;-68
2022/05/15 04:55:57;;;;;;;16.92;9.48;;;12.50;99.90;;;;;;4399150;28;660061;-68
2022/05/15 04:58:44;;;;;;;20.80;9.50;;;12.70;99.90;;;;;;4398586;28;658491;-68
2022/05/15 05:01:33;;;;;;;21.37;9.57;;;12.70;99.90;;;;;;4371635;28;659062;-68
2022/05/15 05:04:21;;;;;;;21.15;11.95;;;12.70;99.90;;;;;;4373544;28;659241;-68
2022/05/15 05:07:08;;;;;;;32.53;12.97;;;12.90;99.90;;;;;;4400090;28;660783;-67
2022/05/15 05:09:56;;;;;;;24.60;12.87;;;13.00;99.90;;;;;;4372062;28;659935;-67
2022/05/15 05:12:43;;;;;;;29.07;11.73;;;13.00;99.90;;;;;;4399350;28;660226;-67
2022/05/15 05:15:30;;;;;;;29.30;11.83;;;13.20;99.90;;;;;;4381469;28;659523;-67
2022/05/15 05:18:19;;;;;;;20.30;10.37;;;13.20;99.90;;;;;;4397666;28;660500;-67
2022/05/15 05:21:06;;;;;;;21.27;10.40;;;13.40;99.90;;;;;;4381302;28;659238;-67
2022/05/15 05:23:54;;;;;;;20.30;9.10;;;13.50;99.90;;;;;;4391938;28;660970;-68
2022/05/15 05:26:41;;;;;;;19.13;7.53;;;13.80;99.90;;;;;;4374416;28;659027;-68
2022/05/15 05:29:28;;;;;;;24.67;8.77;;;13.90;99.90;;;;;;4397707;28;659031;-68
2022/05/15 05:32:15;;;;;;;22.83;8.10;;;14.10;99.90;;;;;;4376507;28;659423;-68
2022/05/15 05:35:04;;;;;;;17.40;6.83;;;14.10;99.90;;;;;;4405897;28;659361;-67
2022/05/15 05:37:52;;;;;;;23.40;7.63;;;14.00;99.90;;;;;;4365727;28;658305;-68
2022/05/15 05:40:39;;;;;;;15.47;7.23;;;14.00;99.90;;;;;;4403985;28;659178;-67
2022/05/15 05:43:26;;;;;;;20.47;7.87;;;14.10;99.90;;;;;;4371301;28;658355;-68
2022/05/15 05:46:14;;;;;;;18.50;7.60;;;14.30;99.90;;;;;;4393730;28;660376;-67
2022/05/15 05:49:01;;;;;;;23.27;6.73;;;14.40;99.90;;;;;;4366230;28;659199;-67
2022/05/15 05:51:51;;;;;;;15.93;6.33;;;14.40;99.90;;;;;;4386135;28;659066;-67
2022/05/15 05:54:38;;;;;;;14.63;6.17;;;14.30;99.90;;;;;;4359847;28;659096;-67
2022/05/15 05:57:25;;;;;;;22.02;5.63;;;14.40;99.90;;;;;;4363715;28;658564;-67
2022/05/15 06:00:14;;;;;;;15.33;5.90;;;14.20;99.90;;;;;;4399540;28;659618;-67
2022/05/15 06:06:06;;;;;;;14.63;5.67;;;14.20;99.90;;;;;;4351295;28;658936;-68
2022/05/15 06:08:54;;;;;;;24.43;5.50;;;14.40;99.90;;;;;;4390040;28;658125;-67
2022/05/15 06:11:41;;;;;;;16.57;5.73;;;14.60;99.90;;;;;;4378637;28;658514;-68
2022/05/15 06:14:29;;;;;;;15.93;5.60;;;14.80;99.90;;;;;;4395755;28;658900;-68
2022/05/15 06:17:16;;;;;;;16.67;4.90;;;15.00;99.90;;;;;;4376904;28;658907;-67
2022/05/15 06:20:06;;;;;;;16.35;4.85;;;14.90;99.90;;;;;;4395191;28;660800;-68
2022/05/15 06:22:54;;;;;;;10.83;4.47;;;15.10;99.90;;;;;;4370602;28;659233;-67
2022/05/15 06:25:42;;;;;;;17.33;5.30;;;15.00;99.90;;;;;;4359429;28;658986;-67
2022/05/15 06:28:33;;;;;;;16.23;5.40;;;15.00;99.90;;;;;;4400112;28;659451;-67
2022/05/15 06:31:20;;;;;;;16.13;5.23;;;14.90;99.90;;;;;;4373608;28;658675;-67
2022/05/15 06:34:07;;;;;;;13.43;4.80;;;14.90;99.90;;;;;;4426173;28;659432;-67
2022/05/15 06:36:54;;;;;;;15.77;4.70;;;15.00;99.90;;;;;;4394586;28;658918;-67
2022/05/15 06:39:42;;;;;;;17.20;4.50;;;15.30;99.90;;;;;;4376214;28;659842;-67
2022/05/15 06:42:30;;;;;;;15.80;4.33;;;15.60;99.90;;;;;;4396123;28;658918;-68
2022/05/15 06:45:18;;;;;;;11.30;4.10;;;15.80;99.90;;;;;;4379416;28;660083;-67
2022/05/15 06:48:06;;;;;;;16.67;4.97;;;15.80;99.90;;;;;;4385519;28;659147;-67
2022/05/15 06:50:53;;;;;;;16.97;5.83;;;15.80;99.90;;;;;;4398608;28;659300;-67
2022/05/15 06:53:41;;;;;;;15.07;5.87;;;15.70;98.90;;;;;;4385572;28;658776;-68
2022/05/15 06:59:34;;;;;;;14.70;6.20;;;15.60;99.90;;;;;;4354276;28;658858;-67
2022/05/15 07:02:22;;;;;;;18.63;6.47;;;15.70;99.90;;;;;;4388347;28;658870;-67
2022/05/15 07:05:10;;;;;;;17.07;6.57;;;16.00;99.90;;;;;;4394556;28;660227;-67
2022/05/15 07:07:57;;;;;;;15.77;5.97;;;16.00;99.90;;;;;;4376490;28;659089;-68
2022/05/15 07:10:44;;;;;;;17.43;5.80;;;16.30;99.90;;;;;;4395158;28;659155;-68
2022/05/15 07:13:32;;;;;;;20.90;6.60;;;16.40;99.90;;;;;;4362716;28;659671;-67
2022/05/15 07:16:21;;;;;;;17.43;6.23;;;16.70;99.90;;;;;;4372106;28;659207;-67
2022/05/15 07:19:09;;;;;;;20.97;6.50;;;16.20;99.90;;;;;;4390377;28;658505;-67
2022/05/15 07:21:56;;;;;;;19.30;6.10;;;15.90;99.90;;;;;;4375245;28;658394;-67
2022/05/15 07:24:43;;;;;;;16.77;6.10;;;16.40;99.90;;;;;;4393764;28;659761;-67
2022/05/15 07:27:30;;;;;;;16.70;5.57;;;16.50;95.40;;;;;;4376757;28;658593;-68
2022/05/15 07:30:17;;;;;;;16.37;6.43;;;16.60;98.70;;;;;;4388774;28;658668;-68
2022/05/15 07:33:07;;;;;;;17.30;5.77;;;16.60;95.80;;;;;;4375834;28;658865;-67
2022/05/15 07:35:55;;;;;;;17.90;6.00;;;16.80;93.80;;;;;;4380166;28;658926;-67
2022/05/15 07:38:42;;;;;;;18.17;5.03;;;16.80;90.80;;;;;;4363746;28;659229;-67
2022/05/15 07:41:29;;;;;;;10.13;4.13;;;16.40;92.70;;;;;;4381412;28;659631;-67
2022/05/15 07:44:17;;;;;;;12.57;4.27;;;16.50;89.30;;;;;;4374156;28;658831;-67
2022/05/15 07:47:05;;;;;;;10.60;3.10;;;16.40;95.10;;;;;;4392314;28;659182;-68
2022/05/15 07:49:53;;;;;;;7.70;3.00;;;16.50;84.90;;;;;;4376412;28;659597;-67
2022/05/15 07:52:41;;;;;;;16.80;4.23;;;17.20;90.70;;;;;;4386099;28;657673;-67
2022/05/15 07:55:28;;;;;;;15.40;3.93;;;17.60;76.50;;;;;;4391947;28;658933;-67
2022/05/15 07:58:15;;;;;;;11.80;2.80;;;17.50;76.80;;;;;;4375212;28;659490;-67
2022/05/15 08:01:04;;;;;;;8.30;2.50;;;16.80;83.40;;;;;;4396731;28;658744;-67
2022/05/15 08:03:52;;;;;;;12.97;3.13;;;16.80;82.60;;;;;;4359374;28;658126;-67
2022/05/15 08:09:45;;;;;;;8.90;2.97;;;17.10;79.60;;;;;;4389164;28;658522;-67
2022/05/15 08:12:34;;;;;;;8.43;2.70;;;16.90;74.30;;;;;;4397749;28;657805;-67
2022/05/15 08:15:21;;;;;;;8.47;2.70;;;16.80;78.40;;;;;;4387912;28;657682;-67
2022/05/15 08:24:19;;;;;;;11.57;3.07;;;16.80;73.50;;;;;;4335199;28;658557;-67
2022/05/15 08:27:06;;;;;;;9.70;3.30;;;17.50;73.90;;;;;;4361179;28;658687;-67
2022/05/15 08:29:53;;;;;;;13.27;3.20;;;17.70;73.70;;;;;;4393079;28;658751;-67
2022/05/15 08:32:40;;;;;;;10.13;2.80;;;18.00;74.60;;;;;;4374467;28;659182;-67
2022/05/15 08:35:28;;;;;;;10.43;3.40;;;17.60;69.50;;;;;;4393304;28;660102;-67
2022/05/15 08:38:16;;;;;;;10.93;3.30;;;16.80;71.50;;;;;;4363804;28;658762;-67
2022/05/15 08:41:07;;;;;;;12.30;3.17;;;16.50;72.00;;;;;;4395626;28;659265;-67
2022/05/15 08:43:57;;;;;;;16.50;2.90;;;16.40;73.40;;;;;;4355372;28;659540;-67
2022/05/15 08:46:57;;;;;;;12.37;3.03;;;16.50;74.90;;;;;;4380329;28;659118;-67
2022/05/15 08:49:46;;;;;;;4.43;2.10;;;17.40;70.30;;;;;;4369769;28;659170;-67
2022/05/15 08:52:37;;;;;;;10.07;2.63;;;17.80;80.00;;;;;;4359635;28;658001;-67
2022/05/15 08:55:25;;;;;;;8.37;2.97;;;17.60;67.90;;;;;;4357500;28;658618;-67
2022/05/15 08:58:15;;;;;;;12.13;3.30;;;17.30;69.80;;;;;;4375433;28;658442;-67
2022/05/15 09:01:02;;;;;;;12.53;3.33;;;17.50;72.60;;;;;;4372902;28;660092;-67
2022/05/15 09:03:49;;;;;;;11.03;3.30;;;17.70;70.70;;;;;;4374374;28;659570;-67
2022/05/15 09:06:40;;;;;;;16.13;3.40;;;17.60;66.40;;;;;;4355797;28;658878;-67
2022/05/15 09:09:32;;;;;;;11.93;2.90;;;17.60;64.80;;;;;;4372995;28;659283;-67
2022/05/15 09:12:20;;;;;;;8.57;2.90;;;17.30;65.70;;;;;;4370019;28;658448;-67
2022/05/15 09:15:12;;;;;;;8.47;1.97;;;17.60;70.10;;;;;;4375844;28;658136;-67
2022/05/15 09:18:02;;;;;;;11.60;2.93;;;17.80;63.10;;;;;;4373048;28;657942;-67
2022/05/15 09:20:57;;;;;;;9.97;2.60;;;18.00;63.30;;;;;;4383323;28;659109;-68
2022/05/15 09:23:49;;;;;;;14.60;2.60;;;18.10;60.70;;;;;;4353410;28;657610;-68
2022/05/15 09:26:43;;;;;;;7.77;2.30;;;18.80;59.70;;;;;;4373315;28;659255;-67
2022/05/15 09:29:34;;;;;;;12.93;2.47;;;18.60;58.20;;;;;;4340385;28;657534;-67
2022/05/15 09:32:38;;;;;;;13.43;2.80;;;17.70;60.10;;;;;;4372925;28;658907;-68
2022/05/15 09:35:33;;;;;;;13.30;2.50;;;17.30;62.30;;;;;;4332471;28;658670;-68
2022/05/15 09:38:30;;;;;;;10.50;2.77;;;17.00;65.40;;;;;;4350316;28;658523;-68
2022/05/15 09:44:25;;;;;;;5.50;1.27;;;18.60;65.90;;;;;;4371190;28;658284;-68
2022/05/15 09:47:23;;;;;;;7.97;2.30;;;18.30;61.70;;;;;;4358300;28;658952;-67
2022/05/15 09:50:40;;;;;;;8.50;2.50;;;18.10;60.60;;;;;;4350426;28;658006;-67
2022/05/15 09:53:31;;;;;;;12.87;2.40;;;17.30;65.60;;;;;;4351770;28;657787;-68
2022/05/15 09:56:25;;;;;;;8.20;2.40;;;17.00;67.50;;;;;;4366430;28;658341;-67
2022/05/15 09:59:13;;;;;;;12.83;2.67;;;17.70;64.20;;;;;;4347299;28;658825;-68
2022/05/15 10:02:01;;;;;;;11.13;2.40;;;18.30;64.20;;;;;;4357892;28;658600;-68
2022/05/15 10:04:49;;;;;;;16.13;2.80;;;19.10;60.80;;;;;;4381694;28;658928;-68
2022/05/15 10:07:40;;;;;;;7.37;2.03;;;20.10;58.50;;;;;;4366353;28;658899;-68
2022/05/15 10:10:31;;;;;;;6.97;2.20;;;19.30;57.70;;;;;;4365533;28;657783;-67
2022/05/15 10:13:23;;;;;;;6.93;1.53;;;18.70;53.80;;;;;;4355040;28;658576;-68
2022/05/15 10:16:13;;;;;;;12.57;2.60;;;18.60;54.90;;;;;;4347464;28;658835;-68
2022/05/15 10:19:02;;;;;;;8.40;2.63;;;18.80;55.00;;;;;;4365385;28;659545;-67
2022/05/15 10:21:51;;;;;;;11.60;2.50;;;18.10;57.80;;;;;;4377128;28;657722;-67
2022/05/15 10:24:44;;;;;;;9.73;2.17;;;17.80;58.90;;;;;;4398024;28;658875;-67
2022/05/15 10:27:32;;;;;;;9.20;2.10;;;18.80;57.00;;;;;;4373117;28;657974;-68
2022/05/15 10:30:21;;;;;;;6.77;2.10;;;18.90;61.90;;;;;;4389681;28;657908;-67
2022/05/15 10:33:12;;;;;;;5.18;1.77;;;17.90;54.10;;;;;;4373655;28;658299;-68
2022/05/15 10:36:01;;;;;;;6.27;1.70;;;18.40;52.80;;;;;;4356521;28;658425;-68
2022/05/15 10:38:54;;;;;;;8.70;2.33;;;19.10;52.40;;;;;;4356352;28;658020;-68
2022/05/15 10:41:48;;;;;;;9.90;2.10;;;19.20;53.30;;;;;;4374614;28;657540;-68
2022/05/15 10:44:41;;;;;;;8.00;2.17;;;19.00;53.40;;;;;;4363202;28;658157;-67
2022/05/15 10:47:29;;;;;;;6.13;2.15;;;18.40;55.70;;;;;;4370906;28;658660;-67
2022/05/15 10:50:21;;;;;;;8.37;2.00;;;18.10;54.20;;;;;;4360626;28;658229;-68
2022/05/15 10:59:55;;;;;;;7.20;1.90;;;18.50;51.00;;;;;;4341160;28;658676;-67
2022/05/15 11:03:09;;;;;;;4.77;1.50;;;19.70;51.80;;;;;;4359827;28;658356;-68
2022/05/15 11:06:19;;;;;;;4.93;1.50;;;19.80;47.00;;;;;;4374928;28;657621;-68
2022/05/15 11:09:10;;;;;;;4.93;2.03;;;19.60;47.20;;;;;;4353344;28;658059;-68
2022/05/15 11:12:04;;;;;;;4.47;1.60;;;19.80;50.60;;;;;;4356652;28;658832;-67
2022/05/15 11:15:00;;;;;;;7.57;1.90;;;20.10;50.90;;;;;;4363895;28;658274;-68
2022/05/15 11:17:50;;;;;;;8.20;1.97;;;20.10;50.00;;;;;;4336477;28;658844;-67
2022/05/15 11:20:40;;;;;;;4.87;1.87;;;20.30;49.90;;;;;;4361558;28;657437;-68
2022/05/15 11:23:29;;;;;;;3.37;1.30;;;20.60;47.20;;;;;;4355857;28;659265;-68
2022/05/15 11:26:19;;;;;;;2.83;0.80;;;20.30;46.70;;;;;;4360940;28;657615;-67
2022/05/15 11:29:08;;;;;;;8.33;2.03;;;19.60;46.90;;;;;;4371415;28;657920;-68
2022/05/15 11:31:58;;;;;;;10.33;1.70;;;20.20;46.90;;;;;;4366227;28;658653;-68
2022/05/15 11:35:26;;;;;;;4.63;1.77;;;20.40;44.10;;;;;;4378951;28;658594;-67
2022/05/15 11:38:20;;;;;;;16.60;2.17;;;20.30;44.00;;;;;;4305937;28;657766;-67
2022/05/15 11:41:32;;;;;;;6.33;1.57;;;20.50;47.60;;;;;;4337373;28;660585;-67
2022/05/15 11:44:34;;;;;;;4.93;1.60;;;20.60;51.20;;;;;;4360874;28;657888;-67
2022/05/15 11:47:34;;;;;;;25.23;12.20;;;20.30;48.30;;;;;;4359336;28;658017;-67
2022/05/15 11:50:30;;;;;;;6.10;1.83;;;19.70;47.70;;;;;;4333670;28;661479;-67
2022/05/15 11:53:24;;;;;;;4.67;1.60;;;20.20;48.80;;;;;;4332404;28;657808;-66
2022/05/15 11:56:21;;;;;;;18.60;7.63;;;20.20;48.40;;;;;;4352483;28;658291;-67
2022/05/15 11:59:22;;;;;;;4.57;1.67;;;19.90;44.60;;;;;;4369987;28;659586;-67
2022/05/15 12:02:34;;;;;;;4.07;1.67;;;20.30;45.80;;;;;;4371630;28;657911;-67
2022/05/15 12:05:26;;;;;;;6.47;1.60;;;20.60;44.70;;;;;;4369142;28;658065;-67
2022/05/15 12:08:30;;;;;;;4.27;1.50;;;20.60;46.40;;;;;;4370394;28;658412;-67
2022/05/15 12:11:33;;;;;;;7.70;2.40;;;21.40;45.20;;;;;;4350013;28;658278;-67
2022/05/15 12:14:35;;;;;;;8.97;1.93;;;20.30;44.80;;;;;;4362928;28;657587;-67
2022/05/15 12:17:26;;;;;;;3.23;1.40;;;19.60;47.00;;;;;;4347563;28;658862;-67
2022/05/15 12:20:15;;;;;;;8.70;1.73;;;19.20;47.10;;;;;;4370870;28;658280;-67
2022/05/15 12:23:06;;;;;;;10.40;1.90;;;18.80;49.50;;;;;;4378748;28;658539;-67
2022/05/15 12:25:56;;;;;;;6.33;2.00;;;19.30;48.70;;;;;;4369617;28;659380;-67
2022/05/15 12:28:52;;;;;;;5.23;1.63;;;20.20;47.80;;;;;;4369509;28;658757;-67
2022/05/15 12:31:41;;;;;;;5.13;1.50;;;20.90;48.20;;;;;;4373213;28;658080;-67
2022/05/15 12:34:29;;;;;;;7.53;1.60;;;20.00;44.00;;;;;;4370736;28;658407;-67
2022/05/15 12:37:18;;;;;;;6.00;1.80;;;20.30;48.40;;;;;;4373450;28;657897;-67
2022/05/15 12:40:08;;;;;;;6.70;1.77;;;20.30;44.80;;;;;;4383286;28;657826;-67
2022/05/15 12:42:56;;;;;;;6.80;1.43;;;20.80;45.60;;;;;;4372229;28;657297;-67
2022/05/15 12:45:43;;;;;;;5.10;1.47;;;20.30;48.00;;;;;;4398861;28;658746;-66
2022/05/15 12:48:32;;;;;;;6.57;1.70;;;19.90;45.60;;;;;;4361755;28;657983;-66
2022/05/15 12:51:26;;;;;;;7.30;1.60;;;20.10;46.30;;;;;;4395529;28;657361;-67
2022/05/15 12:54:23;;;;;;;3.13;1.30;;;21.20;48.00;;;;;;4372069;28;658204;-67
2022/05/15 12:57:14;;;;;;;4.00;1.50;;;21.10;43.20;;;;;;4361660;28;657915;-67
2022/05/15 13:00:10;;;;;;;2.17;1.20;;;21.00;44.50;;;;;;4379538;28;658214;-67
2022/05/15 13:02:59;;;;;;;11.00;1.67;;;20.00;44.60;;;;;;4372558;28;658299;-67
2022/05/15 13:05:52;;;;;;;5.27;1.67;;;21.00;42.90;;;;;;4372819;28;658907;-67
2022/05/15 13:08:49;;;;;;;5.63;1.50;;;21.30;44.80;;;;;;4379375;28;658445;-67
2022/05/15 13:11:42;;;;;;;5.30;1.53;;;21.80;41.10;;;;;;4380617;28;657803;-67
2022/05/15 13:14:31;;;;;;;7.10;2.13;;;21.00;42.20;;;;;;4379290;28;658028;-67
2022/05/15 13:17:23;;;;;;;5.63;1.80;;;21.40;40.90;;;;;;4370740;28;657983;-67
2022/05/15 13:20:12;;;;;;;5.47;1.67;;;21.50;42.20;;;;;;4352469;28;658263;-67
2022/05/15 13:23:01;;;;;;;4.20;1.60;;;21.80;45.60;;;;;;4394995;28;657677;-67
2022/05/15 13:25:49;;;;;;;9.47;1.33;;;22.50;41.10;;;;;;4381523;28;658707;-67
2022/05/15 13:28:36;;;;;;;4.17;1.30;;;21.30;41.90;;;;;;4357908;28;657731;-67
2022/05/15 13:31:25;;;;;;;11.07;1.73;;;22.40;42.20;;;;;;4408608;28;658224;-67
2022/05/15 13:34:12;;;;;;;4.50;1.47;;;22.70;42.40;;;;;;4385231;28;659334;-67
2022/05/15 13:37:02;;;;;;;6.97;1.80;;;22.80;41.00;;;;;;4391674;28;657832;-67
2022/05/15 13:46:00;;;;;;;3.47;1.40;;;19.90;43.20;;;;;;4379177;28;658031;-66
2022/05/15 13:49:00;;;;;;;5.30;1.60;;;19.90;44.30;;;;;;4364052;28;658781;-66
2022/05/15 13:51:48;;;;;;;4.43;1.40;;;20.30;43.40;;;;;;4344631;28;658513;-67
2022/05/15 13:54:43;;;;;;;5.60;1.43;;;21.50;43.30;;;;;;4360428;28;657743;-66
2022/05/15 13:57:31;;;;;;;6.47;1.57;;;20.90;41.10;;;;;;4359694;28;658532;-67
2022/05/15 14:00:26;;;;;;;4.83;1.27;;;21.30;44.40;;;;;;4410667;28;657981;-67
2022/05/15 14:03:28;;;;;;;7.47;1.93;;;21.40;43.30;;;;;;4373880;28;657880;-67
2022/05/15 14:06:23;;;;;;;2.57;1.13;;;21.60;42.50;;;;;;4359958;28;657506;-66
2022/05/15 14:09:11;;;;;;;3.03;1.47;;;21.50;40.20;;;;;;4367950;28;657266;-66
2022/05/15 14:11:59;;;;;;;4.50;1.50;;;20.10;41.40;;;;;;4397475;28;657508;-66
2022/05/15 14:14:51;;;;;;;3.63;1.13;;;20.00;43.60;;;;;;4375626;28;658140;-66
2022/05/15 14:17:46;;;;;;;3.37;1.20;;;20.80;43.50;;;;;;4375755;28;658039;-67
2022/05/15 14:20:35;;;;;;;3.90;1.40;;;21.30;41.10;;;;;;4375151;28;658080;-67
2022/05/15 14:23:25;;;;;;;5.93;1.50;;;21.50;40.20;;;;;;4375560;28;658765;-67
2022/05/15 14:26:14;;;;;;;8.17;1.87;;;20.90;40.20;;;;;;4374020;28;657855;-67
2022/05/15 14:29:01;;;;;;;4.77;1.43;;;21.10;41.50;;;;;;4378601;28;658064;-67
2022/05/15 14:31:48;;;;;;;4.27;1.10;;;21.00;38.70;;;;;;4396839;28;658612;-66
2022/05/15 14:34:35;;;;;;;4.33;1.37;;;21.40;40.30;;;;;;4378746;28;657639;-67
2022/05/15 14:37:22;;;;;;;2.67;1.20;;;21.90;41.50;;;;;;4397398;28;659028;-67
2022/05/15 14:40:12;;;;;;;10.53;1.20;;;22.50;38.90;;;;;;4402896;28;657770;-66
2022/05/15 14:43:00;;;;;;;4.93;1.20;;;21.70;40.50;;;;;;4393252;28;658491;-67
2022/05/15 14:45:50;;;;;;;8.17;1.33;;;21.30;38.30;;;;;;4405212;28;659108;-66
2022/05/15 14:48:38;;;;;;;3.90;1.10;;;20.90;38.30;;;;;;4394088;28;657875;-67
2022/05/15 14:51:26;;;;;;;5.07;1.17;;;21.00;39.20;;;;;;4378094;28;657504;-67
2022/05/15 14:54:14;;;;;;;5.30;1.20;;;22.40;40.20;;;;;;4412200;28;658323;-67
2022/05/15 14:57:05;;;;;;;5.07;1.43;;;22.50;37.20;;;;;;4394552;28;657344;-67
2022/05/15 14:59:52;;;;;;;3.50;1.27;;;22.10;38.80;;;;;;4396623;28;658495;-67
2022/05/15 15:02:40;;;;;;;4.53;1.40;;;21.40;38.40;;;;;;4411596;28;658005;-67